Time;durP1;ratioP1;P1;durP2;ratioP2;P2;SDS_P1;SDS_P2;PMS_P1;PMS_P2;Temp;Humidity;BMP_temperature;BMP_pressure;BME280_temperature;BME280_humidity;BME280_pressure;Samples;Min_cycle;Max_cycle;Signal;HPM_P1;HPM_P2
2022/05/16 00:01:45;;;;;;;12.60;3.63;;;;;;;17.03;55.37;99036.84;4991566;28;20037;-89
2022/05/16 00:04:10;;;;;;;8.70;4.15;;;;;;;17.01;55.56;99041.72;5027421;28;20048;-89
2022/05/16 00:06:36;;;;;;;12.82;4.35;;;;;;;16.98;55.87;99045.78;4993299;28;20021;-89
2022/05/16 00:09:02;;;;;;;7.70;4.47;;;;;;;16.88;55.68;99034.28;5007811;28;20025;-89
2022/05/16 00:11:27;;;;;;;10.00;4.00;;;;;;;16.81;55.85;99028.41;5023980;28;20034;-89
2022/05/16 00:13:53;;;;;;;12.15;4.18;;;;;;;16.79;55.53;99014.41;5028019;28;20554;-89
2022/05/16 00:16:18;;;;;;;10.95;4.60;;;;;;;16.75;55.88;99022.28;5008734;28;20040;-89
2022/05/16 00:18:43;;;;;;;11.75;4.13;;;;;;;16.68;55.83;99019.09;5009549;28;20048;-89
2022/05/16 00:21:09;;;;;;;9.18;3.65;;;;;;;16.72;56.04;99019.34;5010781;28;20037;-89
2022/05/16 00:23:34;;;;;;;8.52;3.28;;;;;;;16.71;56.38;99028.53;5025245;28;20124;-89
2022/05/16 00:25:59;;;;;;;8.48;4.70;;;;;;;16.57;56.47;99006.81;5024680;28;20504;-88
2022/05/16 00:28:25;;;;;;;5.97;3.83;;;;;;;16.50;56.36;99017.09;5025885;28;20112;-89
2022/05/16 00:30:50;;;;;;;11.93;4.18;;;;;;;16.55;56.12;99021.66;5007636;28;20033;-88
2022/05/16 00:33:15;;;;;;;7.22;3.70;;;;;;;16.55;56.23;99014.38;5011884;28;20033;-88
2022/05/16 00:35:41;;;;;;;9.55;3.88;;;;;;;16.59;56.08;99014.59;5011714;28;20033;-88
2022/05/16 00:38:06;;;;;;;11.45;4.22;;;;;;;16.42;56.51;99005.00;5009474;28;20080;-89
2022/05/16 00:40:31;;;;;;;6.78;4.22;;;;;;;16.39;56.33;99007.47;5008932;28;20091;-88
2022/05/16 00:43:06;;;;;;;14.15;4.20;;;;;;;16.42;56.10;99005.00;5009636;28;20087;-88
2022/05/16 00:45:31;;;;;;;10.07;4.78;;;;;;;16.44;56.11;99002.84;5013429;28;20049;-88
2022/05/16 00:47:57;;;;;;;12.02;4.72;;;;;;;16.42;56.32;99015.00;5025822;28;20053;-88
2022/05/16 00:50:23;;;;;;;9.77;4.13;;;;;;;16.42;56.46;99015.78;5012079;28;20168;-88
2022/05/16 00:52:50;;;;;;;8.32;3.83;;;;;;;16.42;56.20;99015.78;5030042;28;20106;-88
2022/05/16 00:55:24;;;;;;;7.38;4.00;;;;;;;16.34;56.75;99002.09;5025652;28;20029;-88
2022/05/16 00:57:53;;;;;;;7.50;3.80;;;;;;;16.33;56.73;99008.59;5022775;28;20389;-88
2022/05/16 01:00:22;;;;;;;11.27;4.10;;;;;;;16.33;56.97;99006.72;5012290;28;20043;-88
2022/05/16 01:05:37;;;;;;;12.32;4.50;;;;;;;16.22;57.20;99005.19;5026772;28;20070;-88
2022/05/16 01:08:06;;;;;;;11.73;3.95;;;;;;;16.12;57.10;98991.78;5021210;28;20123;-88
2022/05/16 01:10:33;;;;;;;10.05;4.35;;;;;;;16.12;56.91;98993.69;5009033;28;20116;-88
2022/05/16 01:13:00;;;;;;;11.18;4.15;;;;;;;16.10;57.32;99003.91;5025415;28;20048;-88
2022/05/16 01:15:41;;;;;;;13.07;4.22;;;;;;;16.06;57.20;99000.97;5026285;28;20034;-88
2022/05/16 01:18:10;;;;;;;12.20;4.68;;;;;;;15.91;57.33;98984.94;5045388;28;20030;-88
2022/05/16 01:21:01;;;;;;;11.10;4.63;;;;;;;15.98;56.94;98993.50;5026174;28;20029;-88
2022/05/16 01:23:28;;;;;;;10.70;4.47;;;;;;;15.85;57.19;98991.44;5041756;28;20033;-89
2022/05/16 01:25:54;;;;;;;15.95;4.10;;;;;;;15.83;57.16;98988.22;5028104;28;20040;-89
2022/05/16 01:28:23;;;;;;;12.50;4.53;;;;;;;15.81;57.11;98985.00;5013083;28;20042;-89
2022/05/16 01:30:49;;;;;;;10.38;4.40;;;;;;;15.77;57.06;98973.16;5023656;28;20028;-88
2022/05/16 01:33:16;;;;;;;7.55;3.53;;;;;;;15.77;57.10;98975.06;5025246;28;20052;-88
2022/05/16 01:35:42;;;;;;;7.38;3.67;;;;;;;15.77;57.07;98980.47;5007584;28;20062;-88
2022/05/16 01:38:19;;;;;;;13.38;3.80;;;;;;;15.57;57.11;98957.94;5026708;28;20029;-88
2022/05/16 01:41:09;;;;;;;7.07;3.58;;;;;;;15.59;57.75;98973.84;5028934;28;20563;-88
2022/05/16 01:43:47;;;;;;;9.32;4.10;;;;;;;15.52;57.00;98962.56;5024708;28;20056;-88
2022/05/16 01:46:20;;;;;;;6.60;3.70;;;;;;;15.54;57.75;98971.97;5007368;28;20424;-88
2022/05/16 01:48:45;;;;;;;11.13;3.83;;;;;;;15.46;57.66;98969.88;5023073;28;20116;-88
2022/05/16 01:51:12;;;;;;;14.35;5.43;;;;;;;15.36;57.83;98952.94;5007560;28;20156;-88
2022/05/16 01:53:40;;;;;;;10.55;4.38;;;;;;;15.43;57.71;98964.19;5026859;28;20049;-88
2022/05/16 01:56:06;;;;;;;7.97;3.42;;;;;;;15.40;57.45;98945.91;5012129;28;20037;-88
2022/05/16 01:58:32;;;;;;;8.10;4.88;;;;;;;15.40;57.71;98965.53;5008160;28;20483;-88
2022/05/16 02:00:57;;;;;;;10.65;4.38;;;;;;;15.40;57.90;98962.03;5026223;28;20029;-88
2022/05/16 02:03:23;;;;;;;8.43;3.78;;;;;;;15.32;57.89;98952.69;5036542;28;20085;-88
2022/05/16 02:05:49;;;;;;;8.65;3.22;;;;;;;15.21;57.82;98937.66;5016668;28;20493;-88
2022/05/16 02:08:15;;;;;;;8.18;3.75;;;;;;;15.32;57.93;98947.31;5024471;28;20021;-88
2022/05/16 02:10:41;;;;;;;12.13;4.10;;;;;;;15.29;57.79;98947.84;5026565;28;20030;-88
2022/05/16 02:13:08;;;;;;;11.02;4.38;;;;;;;15.23;58.30;98943.56;5005386;28;20037;-88
2022/05/16 02:15:35;;;;;;;12.63;4.05;;;;;;;15.21;58.21;98943.06;5020982;28;20032;-88
2022/05/16 02:18:01;;;;;;;5.88;3.85;;;;;;;15.20;58.00;98940.66;5024108;28;20393;-88
2022/05/16 02:20:27;;;;;;;9.75;4.10;;;;;;;15.22;58.27;98938.47;5022800;28;20063;-88
2022/05/16 02:25:42;;;;;;;8.20;3.80;;;;;;;15.11;58.15;98939.59;5027034;28;20121;-87
2022/05/16 02:28:09;;;;;;;12.38;4.00;;;;;;;15.08;58.43;98934.75;5022746;28;20079;-88
2022/05/16 02:30:36;;;;;;;12.10;5.30;;;;;;;15.07;58.75;98930.50;5022106;28;20072;-88
2022/05/16 02:33:02;;;;;;;12.43;4.32;;;;;;;15.01;59.02;98927.00;5026230;28;20056;-88
2022/05/16 02:35:29;;;;;;;13.05;4.10;;;;;;;15.03;58.72;98924.84;5021228;28;20025;-88
2022/05/16 02:37:58;;;;;;;11.98;4.13;;;;;;;15.02;58.77;98936.69;5008769;28;20509;-88
2022/05/16 02:40:27;;;;;;;13.05;3.95;;;;;;;14.95;58.83;98915.47;5010588;28;20053;-88
2022/05/16 02:42:53;;;;;;;10.68;4.25;;;;;;;15.04;58.78;98942.59;5028712;28;20041;-88
2022/05/16 02:45:19;;;;;;;8.80;4.55;;;;;;;14.95;59.00;98923.53;5008717;28;20056;-88
2022/05/16 02:47:44;;;;;;;9.48;4.13;;;;;;;14.93;59.13;98917.63;5025422;28;20037;-88
2022/05/16 02:50:10;;;;;;;10.00;4.25;;;;;;;14.92;58.69;98921.38;5010684;28;20083;-88
2022/05/16 02:52:36;;;;;;;11.55;4.00;;;;;;;14.95;58.59;98923.53;5009306;28;20053;-88
2022/05/16 02:55:01;;;;;;;7.20;3.92;;;;;;;14.97;58.96;98926.75;5009400;28;20140;-88
2022/05/16 02:57:30;;;;;;;5.15;3.53;;;;;;;14.93;59.20;98916.81;5025349;28;20069;-88
2022/05/16 02:59:56;;;;;;;9.07;4.57;;;;;;;14.92;59.18;98920.56;5011445;28;20041;-88
2022/05/16 03:02:21;;;;;;;13.57;4.05;;;;;;;14.95;59.11;98918.16;5011268;28;20104;-88
2022/05/16 03:04:47;;;;;;;11.60;4.03;;;;;;;14.93;59.15;98917.63;5022890;28;20164;-88
2022/05/16 03:07:12;;;;;;;10.10;3.95;;;;;;;14.87;58.98;98907.19;5025760;28;20022;-88
2022/05/16 03:09:38;;;;;;;12.70;4.80;;;;;;;14.83;59.33;98917.66;5022821;28;20035;-88
2022/05/16 03:12:04;;;;;;;8.02;3.78;;;;;;;14.83;59.30;98931.09;5007820;28;20988;-88
2022/05/16 03:14:30;;;;;;;11.68;3.50;;;;;;;14.75;59.28;98928.97;5022265;28;20103;-88
2022/05/16 03:16:55;;;;;;;8.95;4.40;;;;;;;14.77;59.22;98923.31;5007783;28;20072;-88
2022/05/16 03:19:21;;;;;;;10.85;4.32;;;;;;;14.72;59.90;98913.38;5008727;28;20557;-88
2022/05/16 03:21:46;;;;;;;9.23;4.05;;;;;;;14.59;59.45;98900.53;5008086;28;20520;-88
2022/05/16 03:24:11;;;;;;;8.57;4.20;;;;;;;14.53;59.78;98900.81;5024602;28;20396;-88
2022/05/16 03:26:38;;;;;;;10.38;4.13;;;;;;;14.58;59.74;98903.50;5005149;28;20489;-88
2022/05/16 03:29:06;;;;;;;10.98;4.65;;;;;;;14.61;59.51;98903.75;5028563;28;20029;-88
2022/05/16 03:31:32;;;;;;;6.40;4.10;;;;;;;14.61;59.66;98913.72;5022960;28;20045;-88
2022/05/16 03:33:57;;;;;;;13.05;4.13;;;;;;;14.46;59.72;98884.97;5006238;28;20037;-88
2022/05/16 03:36:22;;;;;;;10.57;4.13;;;;;;;14.64;59.38;98897.03;5003420;28;20045;-88
2022/05/16 03:41:32;;;;;;;8.80;4.53;;;;;;;14.56;59.54;98895.72;5011485;28;20091;-88
2022/05/16 03:43:57;;;;;;;9.88;3.67;;;;;;;14.48;59.64;98895.47;5027847;28;20037;-88
2022/05/16 03:46:24;;;;;;;10.73;4.82;;;;;;;14.37;60.17;98886.66;4995251;28;20021;-88
2022/05/16 03:48:49;;;;;;;10.27;5.13;;;;;;;14.42;60.11;98889.28;5007732;28;20072;-89
2022/05/16 03:51:14;;;;;;;10.65;3.83;;;;;;;14.43;60.38;98888.22;5040885;28;20400;-88
2022/05/16 03:53:46;;;;;;;10.23;4.65;;;;;;;14.44;60.07;98894.41;5008613;28;20417;-88
2022/05/16 03:56:16;;;;;;;8.88;4.07;;;;;;;14.31;60.28;98863.53;5030497;28;20041;-88
2022/05/16 03:58:42;;;;;;;11.43;4.28;;;;;;;14.54;59.87;98880.94;5041353;28;20032;-87
2022/05/16 04:01:08;;;;;;;10.63;3.95;;;;;;;14.54;59.98;98884.44;5028068;28;20382;-86
2022/05/16 04:03:34;;;;;;;9.80;4.18;;;;;;;14.47;60.24;98886.59;5007586;28;20037;-87
2022/05/16 04:05:59;;;;;;;14.48;6.05;;;;;;;14.52;60.19;98881.22;5010493;28;20379;-87
2022/05/16 04:08:25;;;;;;;9.95;3.72;;;;;;;14.48;60.68;98885.50;4996430;28;20591;-86
2022/05/16 04:10:51;;;;;;;11.50;4.10;;;;;;;14.49;60.21;98887.13;5010324;28;20041;-86
2022/05/16 04:13:16;;;;;;;8.25;3.45;;;;;;;14.58;60.11;98882.81;5014576;28;20040;-86
2022/05/16 04:15:42;;;;;;;9.18;3.75;;;;;;;14.56;59.86;98868.88;5024455;28;20608;-86
2022/05/16 04:18:07;;;;;;;11.82;4.10;;;;;;;14.63;60.08;98884.69;5030210;28;20029;-86
2022/05/16 04:20:32;;;;;;;13.30;4.25;;;;;;;14.74;59.37;98878.22;5012199;28;20663;-87
2022/05/16 04:22:57;;;;;;;9.75;4.18;;;;;;;14.77;59.52;98874.94;5011165;28;20067;-87
2022/05/16 04:25:23;;;;;;;6.38;3.45;;;;;;;15.07;58.65;98880.19;5011864;28;20041;-87
2022/05/16 04:27:48;;;;;;;10.93;3.47;;;;;;;15.21;58.88;98877.72;4997629;28;20485;-86
2022/05/16 04:30:13;;;;;;;10.00;3.10;;;;;;;15.34;58.26;98869.03;4995499;28;20033;-86
2022/05/16 04:32:39;;;;;;;15.82;4.03;;;;;;;15.39;58.12;98859.06;5014399;28;20449;-87
2022/05/16 04:35:05;;;;;;;7.78;3.33;;;;;;;15.55;57.80;98867.84;5025944;28;20489;-87
2022/05/16 04:37:32;;;;;;;12.15;3.90;;;;;;;15.54;57.68;98850.09;5029574;28;20137;-87
2022/05/16 04:40:03;;;;;;;5.07;3.65;;;;;;;15.62;57.57;98853.00;5012033;28;20029;-87
2022/05/16 04:42:40;;;;;;;8.77;3.20;;;;;;;15.76;57.38;98866.63;5026293;28;20560;-87
2022/05/16 04:45:11;;;;;;;5.88;3.55;;;;;;;15.67;57.29;98847.56;5031914;28;20025;-86
2022/05/16 04:47:36;;;;;;;9.18;3.58;;;;;;;15.79;57.42;98867.94;5033098;28;20174;-86
2022/05/16 04:50:03;;;;;;;7.07;3.28;;;;;;;15.74;57.53;98858.03;5029646;28;20036;-86
2022/05/16 04:52:29;;;;;;;12.68;4.18;;;;;;;15.77;57.53;98867.44;5034820;28;20595;-87
2022/05/16 04:54:54;;;;;;;7.00;3.47;;;;;;;15.87;57.71;98868.13;5011900;28;20112;-87
2022/05/16 04:57:20;;;;;;;12.57;3.05;;;;;;;15.66;57.63;98867.47;5027154;28;20280;-87
2022/05/16 04:59:49;;;;;;;9.93;2.40;;;;;;;15.73;57.74;98878.75;5028497;28;20029;-86
2022/05/16 05:02:15;;;;;;;5.30;3.10;;;;;;;15.77;57.54;98863.63;5022060;28;20029;-87
2022/05/16 05:04:41;;;;;;;6.85;3.15;;;;;;;15.73;57.26;98851.81;5009079;28;20029;-87
2022/05/16 05:07:06;;;;;;;9.80;3.35;;;;;;;16.02;57.27;98880.66;5012928;28;20044;-87
2022/05/16 05:14:31;;;;;;;5.22;2.72;;;;;;;16.13;56.91;98883.00;5011136;28;20037;-87
2022/05/16 05:15:01;;;;;;;7.35;2.78;;;;;;;16.29;56.40;98879.03;5008823;28;20041;-86
2022/05/16 05:17:26;;;;;;;13.30;3.08;;;;;;;16.34;56.53;98873.63;4990741;28;20461;-86
2022/05/16 05:19:51;;;;;;;6.53;2.63;;;;;;;16.37;56.01;98883.84;5011480;28;20025;-86
2022/05/16 05:22:17;;;;;;;7.78;3.17;;;;;;;16.44;56.33;98873.53;5025845;28;20163;-86
2022/05/16 05:24:42;;;;;;;6.65;3.35;;;;;;;16.53;55.73;98879.13;4997061;28;20038;-86
2022/05/16 05:27:07;;;;;;;6.28;3.10;;;;;;;16.58;56.06;98879.06;5010650;28;20378;-86
2022/05/16 05:29:32;;;;;;;4.85;2.67;;;;;;;16.65;56.02;98871.44;5019423;28;20040;-86
2022/05/16 05:31:58;;;;;;;6.47;3.38;;;;;;;16.72;55.51;98868.38;5012619;28;20030;-87
2022/05/16 05:34:23;;;;;;;5.65;2.45;;;;;;;16.79;55.17;98887.72;4993056;28;20025;-87
2022/05/16 05:36:48;;;;;;;6.10;2.45;;;;;;;16.77;55.54;98892.59;5007115;28;20037;-87
2022/05/16 05:39:16;;;;;;;3.95;2.47;;;;;;;16.86;55.10;98886.25;4993827;28;20211;-86
2022/05/16 05:41:42;;;;;;;5.53;2.95;;;;;;;16.88;55.54;98894.09;5012086;28;20044;-86
2022/05/16 05:44:07;;;;;;;7.50;2.78;;;;;;;16.92;55.50;98885.13;5004801;28;20439;-86
2022/05/16 05:46:37;;;;;;;8.38;3.58;;;;;;;16.93;55.35;98881.34;5025915;28;20742;-86
2022/05/16 05:49:03;;;;;;;4.22;2.60;;;;;;;17.02;55.15;98884.19;5003370;28;20033;-86
2022/05/16 05:51:29;;;;;;;5.45;3.17;;;;;;;17.06;55.44;98882.50;5007411;28;20160;-86
2022/05/16 05:53:54;;;;;;;6.72;2.90;;;;;;;17.08;55.20;98883.84;4993007;28;20565;-87
2022/05/16 05:56:19;;;;;;;5.10;2.60;;;;;;;17.13;54.73;98875.69;5003739;28;20409;-87
2022/05/16 05:58:46;;;;;;;4.93;3.10;;;;;;;17.17;55.16;98882.09;5018074;28;20029;-87
2022/05/16 06:01:11;;;;;;;6.20;3.15;;;;;;;17.17;54.97;98884.00;5023215;28;20489;-87
2022/05/16 06:03:37;;;;;;;10.05;2.72;;;;;;;17.19;54.59;98879.91;5006131;28;20034;-87
2022/05/16 06:06:03;;;;;;;7.13;2.80;;;;;;;17.15;55.25;98867.28;5009695;28;20060;-87
2022/05/16 06:08:28;;;;;;;7.47;3.20;;;;;;;17.26;55.16;98866.06;5022165;28;20025;-87
2022/05/16 06:10:53;;;;;;;8.98;3.33;;;;;;;17.33;54.70;98877.31;5023540;28;20509;-88
2022/05/16 06:13:19;;;;;;;3.97;2.65;;;;;;;17.40;54.61;98880.44;5011867;28;20033;-87
2022/05/16 06:15:45;;;;;;;11.15;3.42;;;;;;;17.39;55.56;98872.63;5027354;28;20127;-87
2022/05/16 06:18:11;;;;;;;9.43;2.85;;;;;;;17.42;54.92;98886.34;5024229;28;20053;-85
2022/05/16 06:20:37;;;;;;;7.50;3.85;;;;;;;17.43;55.80;98882.53;5030647;28;20108;-85
2022/05/16 06:23:02;;;;;;;38.95;5.10;;;;;;;17.39;55.93;98873.44;5029143;28;20422;-85
2022/05/16 06:25:31;;;;;;;9.20;3.33;;;;;;;17.32;56.64;98861.41;4997741;28;20033;-85
2022/05/16 06:27:57;;;;;;;11.95;3.42;;;;;;;17.38;56.10;98866.44;5010266;28;20487;-85
2022/05/16 06:30:23;;;;;;;11.40;3.30;;;;;;;17.49;55.78;98873.31;5021042;28;20117;-85
2022/05/16 06:32:49;;;;;;;8.93;3.55;;;;;;;17.62;55.63;98877.19;5005828;28;20499;-84
2022/05/16 06:35:15;;;;;;;9.15;3.33;;;;;;;17.59;55.99;98875.88;5025991;28;20021;-84
2022/05/16 06:37:40;;;;;;;6.25;2.78;;;;;;;17.66;55.77;98870.91;5025397;28;20485;-84
2022/05/16 06:40:07;;;;;;;8.68;3.20;;;;;;;17.72;55.83;98858.13;5025532;28;20104;-84
2022/05/16 06:42:32;;;;;;;10.23;3.63;;;;;;;17.74;55.60;98859.44;5007449;28;20053;-84
2022/05/16 06:44:57;;;;;;;9.85;3.05;;;;;;;17.81;55.86;98865.28;5018049;28;20099;-84
2022/05/16 06:47:24;;;;;;;8.25;3.30;;;;;;;17.96;55.28;98864.22;5014575;28;20523;-84
2022/05/16 06:49:50;;;;;;;7.00;2.97;;;;;;;18.01;55.92;98860.63;5025739;28;20021;-84
2022/05/16 06:52:17;;;;;;;8.73;2.70;;;;;;;18.05;55.45;98857.03;5012493;28;20045;-84
2022/05/16 06:54:43;;;;;;;11.40;3.20;;;;;;;18.06;55.50;98855.13;5007437;28;20036;-84
2022/05/16 06:57:08;;;;;;;10.20;3.20;;;;;;;18.20;54.91;98861.34;5012137;28;20044;-84
2022/05/16 06:59:35;;;;;;;7.97;2.78;;;;;;;18.24;55.18;98862.41;5012627;28;20061;-84
2022/05/16 07:02:00;;;;;;;7.03;2.92;;;;;;;18.28;55.06;98866.88;5027627;28;20029;-84
2022/05/16 07:04:26;;;;;;;8.98;2.70;;;;;;;18.23;55.06;98847.25;5011579;28;20029;-84
2022/05/16 07:06:51;;;;;;;8.38;3.08;;;;;;;18.34;55.10;98846.78;5026644;28;20037;-84
2022/05/16 07:09:17;;;;;;;11.90;2.95;;;;;;;18.51;55.18;98846.22;5023442;28;20033;-85
2022/05/16 07:11:43;;;;;;;9.23;3.47;;;;;;;18.55;55.25;98847.22;4994911;28;20033;-85
2022/05/16 07:14:08;;;;;;;7.90;3.17;;;;;;;18.69;54.35;98848.03;5018780;28;20409;-85
2022/05/16 07:16:34;;;;;;;5.53;2.97;;;;;;;18.73;54.53;98845.53;5015875;28;20037;-84
2022/05/16 07:18:59;;;;;;;11.60;2.80;;;;;;;18.77;55.05;98850.03;4988181;28;20075;-85
2022/05/16 07:21:24;;;;;;;10.98;2.80;;;;;;;18.80;54.85;98851.34;5008331;28;20040;-85
2022/05/16 07:23:49;;;;;;;4.28;2.63;;;;;;;18.91;54.59;98852.72;5014562;28;20073;-85
2022/05/16 07:28:59;;;;;;;7.25;3.10;;;;;;;19.07;54.49;98854.00;5028056;28;20107;-84
2022/05/16 07:31:25;;;;;;;8.00;2.72;;;;;;;19.12;54.32;98852.00;5025399;28;20440;-84
2022/05/16 07:33:51;;;;;;;6.03;2.85;;;;;;;19.20;54.09;98848.56;4994215;28;20708;-84
2022/05/16 07:36:16;;;;;;;13.48;3.60;;;;;;;19.26;54.16;98847.34;5028573;28;20033;-84
2022/05/16 07:38:41;;;;;;;9.50;2.97;;;;;;;19.31;54.26;98844.53;5014042;28;20041;-84
2022/05/16 07:41:08;;;;;;;5.95;3.63;;;;;;;19.38;54.26;98844.94;5033403;28;20124;-84
2022/05/16 07:43:33;;;;;;;5.15;3.28;;;;;;;19.41;54.16;98830.00;5010421;28;20078;-84
2022/05/16 07:45:59;;;;;;;9.50;2.83;;;;;;;19.54;53.96;98837.28;5011157;28;20041;-84
2022/05/16 07:48:24;;;;;;;6.85;2.72;;;;;;;19.56;54.13;98837.75;5009281;28;20033;-84
2022/05/16 07:50:50;;;;;;;7.85;2.72;;;;;;;19.65;53.77;98832.41;5013350;28;20124;-84
2022/05/16 07:53:16;;;;;;;5.13;3.13;;;;;;;19.76;53.76;98836.47;5045268;28;20057;-84
2022/05/16 07:55:49;;;;;;;5.75;2.95;;;;;;;19.75;54.01;98838.38;5012938;28;20087;-84
2022/05/16 07:58:15;;;;;;;9.57;3.42;;;;;;;19.86;53.86;98847.03;5029220;28;20094;-84
2022/05/16 08:00:41;;;;;;;9.27;3.47;;;;;;;19.94;53.70;98835.47;5011921;28;20029;-84
2022/05/16 08:03:14;;;;;;;11.80;3.08;;;;;;;20.04;53.45;98832.50;5021147;28;20116;-84
2022/05/16 08:05:40;;;;;;;7.88;3.35;;;;;;;20.14;53.41;98834.94;5025899;28;20029;-84
2022/05/16 08:10:49;;;;;;;7.30;3.40;;;;;;;20.22;53.18;98842.38;5025826;28;20056;-85
2022/05/16 08:13:14;;;;;;;6.43;3.03;;;;;;;20.28;53.50;98838.41;4990567;28;20038;-85
2022/05/16 08:15:41;;;;;;;6.72;3.28;;;;;;;20.45;52.95;98843.09;5030768;28;20099;-84
2022/05/16 08:18:09;;;;;;;12.88;4.05;;;;;;;20.55;52.87;98846.31;5006457;28;20037;-84
2022/05/16 08:20:37;;;;;;;5.63;3.35;;;;;;;20.64;53.01;98844.44;5033539;28;20495;-84
2022/05/16 08:23:03;;;;;;;10.10;3.25;;;;;;;20.82;52.44;98837.97;5021869;28;20053;-84
2022/05/16 08:25:29;;;;;;;8.60;3.72;;;;;;;20.88;52.41;98838.63;5021322;28;20034;-84
2022/05/16 08:27:54;;;;;;;7.63;3.33;;;;;;;21.12;51.76;98841.72;5012021;28;20029;-84
2022/05/16 08:30:22;;;;;;;8.02;3.38;;;;;;;21.16;52.05;98833.75;5013720;28;20028;-84
2022/05/16 08:32:48;;;;;;;12.60;3.22;;;;;;;21.14;51.98;98825.94;5024151;28;21034;-84
2022/05/16 08:35:14;;;;;;;9.23;3.45;;;;;;;21.23;51.99;98829.44;5022246;28;20447;-84
2022/05/16 08:40:37;;;;;;;6.20;2.72;;;;;;;21.41;52.47;98836.50;5024745;28;20516;-84
2022/05/16 08:43:18;;;;;;;9.90;4.25;;;;;;;21.63;51.63;98836.34;5027700;28;20026;-84
2022/05/16 08:45:56;;;;;;;10.75;3.28;;;;;;;21.64;51.73;98834.41;5025890;28;20052;-84
2022/05/16 08:48:33;;;;;;;13.68;3.65;;;;;;;21.78;51.66;98834.22;5021083;28;20014;-84
2022/05/16 08:51:11;;;;;;;5.97;3.60;;;;;;;21.80;51.90;98834.72;5022627;28;20482;-84
2022/05/16 08:53:46;;;;;;;9.80;3.60;;;;;;;21.86;51.41;98839.72;5026900;28;20370;-84
2022/05/16 08:56:18;;;;;;;9.13;3.60;;;;;;;21.91;51.43;98833.31;5011068;28;20087;-84
2022/05/16 08:58:52;;;;;;;9.73;3.15;;;;;;;21.99;52.01;98829.75;5021102;28;20072;-84
2022/05/16 09:01:22;;;;;;;14.57;4.50;;;;;;;22.21;51.62;98833.03;5012686;28;20037;-84
2022/05/16 09:04:00;;;;;;;7.65;4.03;;;;;;;22.32;51.33;98828.84;5028927;28;20034;-84
2022/05/16 09:06:37;;;;;;;5.93;3.03;;;;;;;22.46;51.02;98823.22;5030787;28;20466;-84
2022/05/16 09:09:13;;;;;;;8.15;3.17;;;;;;;22.53;50.77;98831.66;5027041;28;20075;-84
2022/05/16 09:11:46;;;;;;;;;;;;;;;22.88;50.27;98824.16;5031396;28;20025;-84
2022/05/16 09:14:40;;;;;;;6.80;3.38;;;;;;;22.74;50.47;98829.81;5026160;28;19913;-84
2022/05/16 09:17:14;;;;;;;6.70;3.53;;;;;;;22.82;50.82;98822.75;5025528;28;20048;-84
2022/05/16 09:19:49;;;;;;;7.25;3.53;;;;;;;22.86;50.54;98819.03;5009067;28;20124;-84
2022/05/16 09:22:35;;;;;;;5.38;3.38;;;;;;;23.03;50.38;98818.13;5027172;28;20047;-84
2022/05/16 09:25:08;;;;;;;;;;;;;;;23.30;50.01;98811.38;5043617;28;20025;-84
2022/05/16 09:30:22;;;;;;;12.73;3.72;;;;;;;23.24;50.17;98815.44;5024693;28;20052;-84
2022/05/16 09:32:52;;;;;;;8.07;3.70;;;;;;;23.35;49.87;98822.88;5039109;28;20037;-85
2022/05/16 09:35:23;;;;;;;8.95;3.88;;;;;;;23.37;50.07;98823.34;5030182;28;20124;-85
2022/05/16 09:37:50;;;;;;;7.25;3.38;;;;;;;23.42;49.56;98822.34;5025042;28;20045;-84
2022/05/16 09:40:16;;;;;;;10.05;3.97;;;;;;;23.43;49.88;98829.41;5022433;28;20021;-84
2022/05/16 09:42:41;;;;;;;8.65;3.42;;;;;;;23.44;49.41;98823.63;4997168;28;20362;-84
2022/05/16 09:45:19;;;;;;;11.25;4.03;;;;;;;23.49;49.96;98828.06;5012630;28;20488;-84
2022/05/16 09:47:45;;;;;;;7.25;3.60;;;;;;;23.54;49.64;98839.59;5024258;28;20390;-84
2022/05/16 09:50:30;;;;;;;3.90;3.33;;;;;;;23.57;49.83;98838.91;5009023;28;20060;-84
2022/05/16 09:53:13;;;;;;;6.70;3.03;;;;;;;23.53;49.73;98835.25;5022806;28;20025;-84
2022/05/16 09:55:46;;;;;;;10.13;3.95;;;;;;;23.58;49.73;98828.81;5024217;28;20358;-84
2022/05/16 09:58:18;;;;;;;6.85;3.55;;;;;;;23.58;49.63;98832.34;5021370;28;20389;-84
2022/05/16 10:00:58;;;;;;;6.07;3.63;;;;;;;23.67;49.62;98821.34;5015729;28;20034;-84
2022/05/16 10:03:41;;;;;;;5.03;3.17;;;;;;;23.81;49.46;98824.56;5011257;28;20061;-84
2022/05/16 10:06:09;;;;;;;5.38;3.53;;;;;;;23.78;49.68;98836.97;5028545;28;20029;-85
2022/05/16 10:08:37;;;;;;;4.60;3.30;;;;;;;23.76;49.57;98836.47;5006681;28;20099;-84
2022/05/16 10:11:07;;;;;;;8.02;4.60;;;;;;;23.69;49.84;98836.25;5022778;28;20025;-85
2022/05/16 10:13:33;;;;;;;5.43;4.03;;;;;;;23.69;49.77;98849.88;5020861;28;20029;-85
2022/05/16 10:16:02;;;;;;;7.18;3.40;;;;;;;23.62;49.87;98835.16;5028946;28;20021;-85
2022/05/16 10:18:29;;;;;;;4.78;3.70;;;;;;;23.64;49.85;98846.53;5009661;28;20049;-85
2022/05/16 10:21:09;;;;;;;6.82;3.88;;;;;;;23.63;49.94;98840.28;5009560;28;20036;-84
2022/05/16 10:23:38;;;;;;;5.95;3.65;;;;;;;23.56;50.28;98837.31;5021148;28;20104;-85
2022/05/16 10:26:07;;;;;;;4.05;3.38;;;;;;;23.54;50.09;98839.59;5024931;28;20513;-85
2022/05/16 10:28:37;;;;;;;7.90;3.67;;;;;;;23.54;50.07;98836.84;5008247;28;20021;-85
2022/05/16 10:33:51;;;;;;;4.75;3.63;;;;;;;23.51;50.43;98837.50;5029251;28;20083;-85
2022/05/16 10:36:24;;;;;;;6.10;3.90;;;;;;;23.50;50.53;98835.91;5011244;28;20041;-85
2022/05/16 10:39:07;;;;;;;7.22;3.67;;;;;;;23.49;50.58;98834.31;5021461;28;20044;-85
2022/05/16 10:41:50;;;;;;;5.28;4.15;;;;;;;23.50;50.78;98825.00;5000916;28;20030;-85
2022/05/16 10:44:41;;;;;;;5.50;3.80;;;;;;;23.46;51.10;98826.03;5025527;28;20033;-85
2022/05/16 10:47:14;;;;;;;9.63;4.43;;;;;;;23.43;50.90;98818.50;5038176;28;20120;-85
2022/05/16 10:50:15;;;;;;;6.07;4.53;;;;;;;23.39;51.16;98817.59;5009292;28;20385;-85
2022/05/16 10:52:46;;;;;;;7.75;3.97;;;;;;;23.32;51.29;98807.19;5022773;28;20444;-85
2022/05/16 10:55:13;;;;;;;7.22;4.13;;;;;;;23.31;51.24;98816.47;5024604;28;20359;-85
2022/05/16 10:58:01;;;;;;;8.30;3.70;;;;;;;23.30;51.34;98811.38;5023919;28;20497;-85
2022/05/16 11:00:45;;;;;;;6.22;3.75;;;;;;;23.29;51.54;98818.75;5038912;28;20179;-85
2022/05/16 11:03:48;;;;;;;4.55;3.70;;;;;;;23.25;51.25;98812.38;5028245;28;20029;-85
2022/05/16 11:06:40;;;;;;;11.35;4.43;;;;;;;23.21;51.85;98819.63;5023925;28;20725;-85
2022/05/16 11:09:16;;;;;;;8.73;4.32;;;;;;;23.17;51.92;98824.13;5022769;28;20026;-85
2022/05/16 11:12:06;;;;;;;7.30;4.05;;;;;;;23.14;52.10;98822.06;5021482;28;20036;-85
2022/05/16 11:14:56;;;;;;;8.90;3.60;;;;;;;23.13;52.06;98825.91;5027034;28;20090;-85
2022/05/16 11:17:41;;;;;;;11.90;4.55;;;;;;;23.05;51.97;98824.84;5015304;28;20033;-85
2022/05/16 11:20:19;;;;;;;6.37;4.13;;;;;;;23.02;51.99;98830.16;5022826;28;20312;-85
2022/05/16 11:22:57;;;;;;;10.32;4.10;;;;;;;22.92;51.99;98819.63;5026576;28;20033;-85
2022/05/16 11:25:47;;;;;;;6.22;4.07;;;;;;;22.96;52.23;98835.00;5010931;28;20033;-85
2022/05/16 11:28:18;;;;;;;7.95;4.35;;;;;;;22.92;52.51;98833.25;5019391;28;20040;-85
2022/05/16 11:30:58;;;;;;;6.32;4.45;;;;;;;22.92;52.67;98831.34;5025853;28;20026;-85
2022/05/16 11:33:35;;;;;;;6.75;4.43;;;;;;;22.86;52.88;98832.66;5024704;28;20037;-85
2022/05/16 11:36:34;;;;;;;11.55;5.03;;;;;;;22.90;52.58;98841.75;5019282;28;20384;-85
2022/05/16 11:39:23;;;;;;;7.20;4.32;;;;;;;22.89;52.79;98842.88;5014312;28;20041;-85
2022/05/16 11:42:27;;;;;;;6.78;4.35;;;;;;;22.84;52.94;98828.66;5021325;28;20041;-85
2022/05/16 11:45:17;;;;;;;9.25;4.65;;;;;;;22.97;52.60;98843.97;5039675;28;20048;-85
2022/05/16 11:48:07;;;;;;;7.55;4.30;;;;;;;23.04;52.88;98838.78;5034253;28;20026;-85
2022/05/16 11:50:42;;;;;;;11.25;4.70;;;;;;;23.12;52.57;98829.75;5023373;28;20506;-85
2022/05/16 11:53:36;;;;;;;6.40;4.03;;;;;;;23.37;52.36;98825.31;5024601;28;20481;-84
2022/05/16 12:01:39;;;;;;;5.90;3.72;;;;;;;24.08;51.58;98826.75;5024647;28;20409;-85
2022/05/16 12:04:11;;;;;;;9.95;4.82;;;;;;;24.19;51.43;98822.44;5009929;28;20052;-85
2022/05/16 12:06:39;;;;;;;5.68;4.07;;;;;;;24.39;51.35;98818.03;5028397;28;20489;-85
2022/05/16 12:09:14;;;;;;;6.75;3.53;;;;;;;24.68;51.12;98817.84;5023578;28;20083;-85
2022/05/16 12:11:51;;;;;;;11.82;5.00;;;;;;;24.97;50.49;98814.88;5030048;28;20091;-85
2022/05/16 12:14:34;;;;;;;4.28;3.50;;;;;;;25.02;50.35;98813.84;5031665;28;20029;-85